• Join FlightAware (Why Join?)
  • Login
  • US Flag 
09:09AM EDT


 

Airport Tracker/Info


-or-


 

Live Flight TrackerFlight Track Log ✈ OPT429 ✈ 24-Jul-2014 ✈ KSRQ - KVRB

Flight Track Log - Related Links

Times and Time Zones

All times are in EDT time to prevent confusion due to time zone crossing. See the OPT429 flight status page for this flight to view local times or setup timezone preferences in your user account.

Time Position Orientation Groundspeed Altitude Reporting Facility
EDT Latitude Longitude Course Direction KTS MPH feet Rate Location/Type
01:50PM 27.3833 -82.5500 119° Southeast 157 181 900  Level Tampa TRACON
01:51PM 27.3667 -82.5167 119° Southeast 204 235 2,600 2,880 Climbing Tampa TRACON
01:53PM 27.2425 -82.4167 81° East 253 291 10,200 3,000 Climbing Miami Center
01:54PM 27.2614 -82.3375 75° East 268 308 13,400 2,880 Climbing Miami Center
01:55PM 27.3920 -82.3420 81° East  Level Estimated
01:55PM 27.2789 -82.2564 76° East 272 313 16,200  Level Miami Center
01:56PM 27.3019 -82.1503 76° East 290 334 18,200 1,080 Climbing Miami Center
01:58PM 27.3247 -82.0431 77° East 338 389 18,500 360 Climbing Miami Center
01:59PM 27.3489 -81.9283 77° East 357 411 19,000 120 Climbing Miami Center
02:00PM 27.3717 -81.8206 77° East 343 395 18,800 -600 Descending Miami Center
02:01PM 27.3897 -81.7361 76° East 341 392 17,800 -1,020 Descending Miami Center
02:02PM 27.4122 -81.6222 77° East 313 360 16,700 -1,020 Descending Miami Center
02:03PM 27.4317 -81.5297 77° East 309 356 15,700 -1,020 Descending Miami Center
02:04PM 27.4478 -81.4339 79° East 311 358 14,700 -1,080 Descending Miami Center
02:05PM 27.4644 -81.3206 81° East 320 368 13,500 -1,080 Descending Miami Center
02:06PM 27.4797 -81.2206 80° East 314 361 12,500 -1,020 Descending Miami Center
02:07PM 27.5003 -81.1286 76° East 314 361 11,500 -1,020 Descending Miami Center
02:08PM 27.5219 -81.0294 76° East 314 361 10,400 -1,380 Descending Miami Center
02:09PM 27.5425 -80.9367 76° East 297 342 8,700 -2,040 Descending Miami Center
02:10PM 27.5622 -80.8469 76° East 284 327 6,300 -2,220 Descending Miami Center
02:11PM 27.5803 -80.7644 76° East 278 320 4,200 -1,680 Descending Miami Center
02:12PM 27.5981 -80.6825 76° East 260 299 2,900 -780 Descending Miami Center
02:13PM 27.6150 -80.6064 76° East 240 276 2,700 -540 Descending Miami Center
02:14PM 27.6314 -80.5383 75° East 220 253 1,800 -780 Descending Miami Center
02:15PM 27.6583 -80.4917 57° Northeast 173 199 1,100 -660 Descending Miami Center
02:16PM 27.6664 -80.4539 76° East 125 144 500 -540 Descending Miami Center
02:17PM 27.6567 -80.4233 110° East 118 136 100 -420 Descending Miami Center